createdAt,value
2022-08-10T00:01:55.260Z,89.92
2022-08-10T00:04:29.609Z,90.38
2022-08-10T00:07:02.613Z,90.53
2022-08-10T00:09:50.672Z,89.88
2022-08-10T00:12:54.069Z,90.75
2022-08-10T00:15:53.142Z,89.86
2022-08-10T00:18:07.595Z,90.02
2022-08-10T00:20:40.588Z,89.90
2022-08-10T00:23:13.576Z,90.82
2022-08-10T00:25:46.674Z,89.74
2022-08-10T00:28:13.421Z,88.81
2022-08-10T00:30:46.829Z,89.21
2022-08-10T00:33:13.523Z,88.27
2022-08-10T00:35:46.760Z,88.18
2022-08-10T00:38:13.372Z,87.44
2022-08-10T00:40:46.579Z,85.44
2022-08-10T00:43:13.381Z,84.06
2022-08-10T00:45:59.078Z,82.56
2022-08-10T00:48:30.864Z,82.44
2022-08-10T00:51:07.669Z,81.84
2022-08-10T00:53:34.256Z,83.72
2022-08-10T00:57:14.520Z,82.83
2022-08-10T00:59:00.620Z,83.56
2022-08-10T01:02:09.841Z,85.15
2022-08-10T01:04:39.653Z,85.36
2022-08-10T01:07:18.901Z,82.68
2022-08-10T01:09:57.586Z,83.20
2022-08-10T01:12:40.761Z,84.31
2022-08-10T01:15:21.588Z,85.24
2022-08-10T01:17:51.637Z,85.29
2022-08-10T01:20:30.486Z,84.78
2022-08-10T01:23:22.370Z,85.09
2022-08-10T01:26:10.985Z,88.71
2022-08-10T01:28:39.550Z,87.43
2022-08-10T01:31:15.608Z,87.79
2022-08-10T01:34:01.918Z,88.64
2022-08-10T01:36:37.592Z,86.58
2022-08-10T01:39:05.511Z,85.22
2022-08-10T01:41:47.020Z,85.94
2022-08-10T01:44:38.584Z,83.91
2022-08-10T01:47:32.579Z,84.06
2022-08-10T01:50:19.724Z,84.60
2022-08-10T01:52:55.722Z,86.03
2022-08-10T01:55:23.076Z,86.64
2022-08-10T01:57:56.576Z,86.24
2022-08-10T02:00:24.032Z,85.49
2022-08-10T02:02:58.652Z,85.76
2022-08-10T02:05:27.189Z,86.84
2022-08-10T02:08:03.588Z,88.08
2022-08-10T02:10:32.130Z,88.79
2022-08-10T02:13:05.573Z,92.55
2022-08-10T02:15:40.665Z,92.03
2022-08-10T02:18:35.578Z,96.47
2022-08-10T02:21:07.222Z,95.96
2022-08-10T02:23:42.570Z,97.92
2022-08-10T02:26:10.428Z,99.23
2022-08-10T02:28:44.570Z,100.00
2022-08-10T02:31:16.862Z,99.50
2022-08-10T02:33:57.706Z,97.51
2022-08-10T02:36:27.804Z,98.46
2022-08-10T02:39:03.577Z,98.15
2022-08-10T02:45:03.266Z,98.19
2022-08-10T02:45:23.959Z,98.40
2022-08-10T02:47:52.157Z,99.76
2022-08-10T02:50:28.560Z,99.12
2022-08-10T02:53:51.444Z,100.00
2022-08-10T02:56:38.563Z,99.57
2022-08-10T02:59:08.239Z,99.33
2022-08-10T03:01:43.779Z,100.00
2022-08-10T03:04:20.603Z,100.00
2022-08-10T03:07:18.037Z,100.00
2022-08-10T03:10:11.126Z,100.00
2022-08-10T03:12:49.874Z,100.00
2022-08-10T03:15:18.656Z,100.00
2022-08-10T03:17:57.682Z,100.00
2022-08-10T03:20:42.740Z,100.00
2022-08-10T03:23:19.325Z,100.00
2022-08-10T03:25:54.811Z,100.00
2022-08-10T03:28:25.914Z,100.00
2022-08-10T03:30:59.622Z,100.00
2022-08-10T03:33:33.565Z,100.00
2022-08-10T03:36:40.545Z,100.00
2022-08-10T03:38:57.600Z,100.00
2022-08-10T03:41:30.838Z,100.00
2022-08-10T03:44:16.552Z,100.00
2022-08-10T03:46:52.293Z,100.00
2022-08-10T03:49:26.560Z,100.00
2022-08-10T03:51:53.660Z,100.00
2022-08-10T03:54:27.557Z,100.00
2022-08-10T03:56:54.164Z,100.00
2022-08-10T03:59:21.369Z,100.00
2022-08-10T04:02:52.643Z,100.00
2022-08-10T04:04:43.609Z,100.00
2022-08-10T04:07:17.617Z,100.00
2022-08-10T04:09:54.889Z,100.00
2022-08-10T04:12:29.563Z,100.00
2022-08-10T04:14:56.256Z,100.00
2022-08-10T04:18:03.293Z,100.00
2022-08-10T04:20:17.538Z,100.00
2022-08-10T04:22:51.544Z,100.00
2022-08-10T04:25:18.465Z,100.00
2022-08-10T04:27:45.545Z,100.00
2022-08-10T04:30:19.547Z,100.00
2022-08-10T04:32:48.722Z,100.00
2022-08-10T04:35:24.540Z,100.00
2022-08-10T04:37:51.994Z,100.00
2022-08-10T04:40:30.288Z,100.00
2022-08-10T04:43:12.721Z,100.00
2022-08-10T04:45:51.971Z,100.00
2022-08-10T04:48:41.387Z,100.00
2022-08-10T04:51:19.745Z,100.00
2022-08-10T04:54:06.028Z,100.00
2022-08-10T04:56:37.562Z,100.00
2022-08-10T04:59:12.750Z,100.00
2022-08-10T05:02:22.399Z,100.00
2022-08-10T05:04:38.930Z,100.00
2022-08-10T05:07:16.324Z,100.00
2022-08-10T05:10:01.100Z,100.00
2022-08-10T05:12:43.552Z,100.00
2022-08-10T05:15:20.544Z,100.00
2022-08-10T05:18:08.415Z,100.00
2022-08-10T05:20:46.221Z,100.00
2022-08-10T05:23:22.749Z,100.00
2022-08-10T05:25:55.539Z,100.00
2022-08-10T05:28:30.790Z,100.00
2022-08-10T05:31:08.536Z,100.00
2022-08-10T05:33:41.553Z,100.00
2022-08-10T05:36:08.948Z,100.00
2022-08-10T05:38:43.537Z,100.00
2022-08-10T05:41:16.527Z,100.00
2022-08-10T05:43:43.943Z,100.00
2022-08-10T05:46:23.522Z,100.00
2022-08-10T05:49:01.001Z,100.00
2022-08-10T05:51:30.259Z,100.00
2022-08-10T05:54:06.764Z,100.00
2022-08-10T05:56:53.742Z,100.00
2022-08-10T06:00:29.450Z,100.00
2022-08-10T06:02:48.067Z,100.00
2022-08-10T06:05:23.534Z,100.00
2022-08-10T06:08:02.716Z,100.00
2022-08-10T06:10:36.588Z,100.00
2022-08-10T06:13:49.544Z,100.00
2022-08-10T06:16:39.550Z,100.00
2022-08-10T06:19:15.079Z,100.00
2022-08-10T06:22:00.476Z,100.00
2022-08-10T06:24:30.535Z,100.00
2022-08-10T06:27:04.511Z,100.00
2022-08-10T06:29:32.148Z,100.00
2022-08-10T06:31:59.689Z,100.00
2022-08-10T06:34:35.548Z,100.00
2022-08-10T06:37:10.530Z,100.00
2022-08-10T06:39:43.589Z,98.14
2022-08-10T06:42:21.540Z,97.73
2022-08-10T06:45:10.523Z,98.81
2022-08-10T06:47:52.550Z,97.76
2022-08-10T06:50:58.580Z,99.46
2022-08-10T06:53:53.787Z,92.89
2022-08-10T06:56:37.688Z,91.09
2022-08-10T06:59:32.522Z,92.07
2022-08-10T07:02:10.469Z,90.48
2022-08-10T07:04:48.581Z,92.42
2022-08-10T07:07:23.545Z,89.64
2022-08-10T07:09:51.365Z,87.67
2022-08-10T07:12:26.556Z,90.73
2022-08-10T07:14:54.775Z,88.81
2022-08-10T07:17:29.554Z,88.25
2022-08-10T07:19:57.785Z,94.34
2022-08-10T07:23:27.034Z,89.08
2022-08-10T07:25:25.317Z,89.15
2022-08-10T07:28:01.804Z,88.15
2022-08-10T07:30:30.494Z,85.90
2022-08-10T07:33:04.538Z,87.36
2022-08-10T07:35:42.185Z,85.05
2022-08-10T07:38:22.518Z,94.11
2022-08-10T07:40:50.777Z,85.02
2022-08-10T07:43:25.568Z,84.49
2022-08-10T07:45:59.691Z,83.16
2022-08-10T07:48:42.553Z,93.52
2022-08-10T07:51:09.970Z,88.42
2022-08-10T07:53:46.543Z,96.10
2022-08-10T07:56:38.478Z,85.65
2022-08-10T07:59:12.529Z,85.88
2022-08-10T08:01:48.451Z,79.57
2022-08-10T08:04:23.533Z,83.47
2022-08-10T08:06:57.535Z,83.06
2022-08-10T08:09:31.548Z,77.60
2022-08-10T08:12:06.552Z,81.73
2022-08-10T08:14:35.050Z,85.12
2022-08-10T08:17:08.511Z,79.00
2022-08-10T08:19:45.797Z,82.26
2022-08-10T08:24:08.086Z,77.06
2022-08-10T08:25:15.424Z,77.08
2022-08-10T08:27:49.493Z,78.71
2022-08-10T08:30:16.145Z,83.84
2022-08-10T08:33:07.606Z,83.20
2022-08-10T08:35:34.507Z,77.42
2022-08-10T08:38:31.224Z,81.89
2022-08-10T08:41:26.648Z,82.70
2022-08-10T08:44:31.631Z,75.14
2022-08-10T08:48:02.255Z,77.98
2022-08-10T08:50:13.568Z,83.87
2022-08-10T08:52:59.435Z,77.36
2022-08-10T08:56:06.045Z,74.90
2022-08-10T08:58:58.471Z,76.65
2022-08-10T09:01:42.570Z,72.95
2022-08-10T09:04:20.142Z,71.16
2022-08-10T09:08:00.850Z,80.60
2022-08-10T09:10:14.312Z,79.17
2022-08-10T09:12:56.541Z,73.41
2022-08-10T09:15:39.928Z,74.77
2022-08-10T09:18:33.594Z,73.02
2022-08-10T09:21:03.040Z,72.88
2022-08-10T09:24:11.534Z,68.58
2022-08-10T09:26:38.002Z,67.50
2022-08-10T09:29:13.586Z,70.45
2022-08-10T09:36:15.356Z,70.85
2022-08-10T09:36:24.243Z,70.44
2022-08-10T09:38:18.688Z,74.28
2022-08-10T09:40:59.482Z,70.56
2022-08-10T09:44:11.582Z,70.64
2022-08-10T09:47:07.609Z,66.34
2022-08-10T09:50:04.974Z,71.01
2022-08-10T09:52:35.698Z,67.38
2022-08-10T09:55:11.562Z,65.80
2022-08-10T09:58:07.540Z,63.90
2022-08-10T10:00:43.512Z,63.63
2022-08-10T10:03:17.715Z,64.17
2022-08-10T10:06:04.507Z,69.17
2022-08-10T10:08:42.227Z,60.85
2022-08-10T10:11:21.512Z,69.61
2022-08-10T10:14:07.209Z,62.91
2022-08-10T10:17:01.510Z,62.13
2022-08-10T10:19:50.721Z,64.27
2022-08-10T10:22:44.528Z,57.82
2022-08-10T10:25:19.834Z,62.50
2022-08-10T10:27:58.499Z,62.29
2022-08-10T10:30:29.096Z,55.05
2022-08-10T10:33:13.227Z,58.17
2022-08-10T10:35:55.122Z,59.44
2022-08-10T10:38:29.525Z,58.65
2022-08-10T10:41:03.228Z,58.95
2022-08-10T10:44:02.494Z,53.97
2022-08-10T10:46:51.645Z,55.44
2022-08-10T10:49:22.034Z,57.96
2022-08-10T10:52:06.500Z,56.60
2022-08-10T10:55:12.500Z,55.29
2022-08-10T10:57:59.783Z,54.78
2022-08-10T11:00:43.482Z,58.08
2022-08-10T11:03:34.483Z,56.38
2022-08-10T11:06:10.161Z,54.50
2022-08-10T11:08:54.500Z,54.69
2022-08-10T11:12:01.291Z,58.99
2022-08-10T11:14:29.368Z,56.18
2022-08-10T11:17:05.479Z,55.66
2022-08-10T11:20:02.572Z,53.68
2022-08-10T11:22:40.482Z,54.42
2022-08-10T11:25:06.972Z,55.82
2022-08-10T11:27:45.665Z,54.04
2022-08-10T11:30:13.352Z,54.06
2022-08-10T11:33:01.664Z,53.53
2022-08-10T11:35:43.309Z,54.53
2022-08-10T11:38:30.005Z,54.69
2022-08-10T11:41:12.830Z,52.55
2022-08-10T11:44:25.500Z,51.31
2022-08-10T11:47:18.591Z,51.16
2022-08-10T11:49:54.715Z,49.79
2022-08-10T11:52:41.382Z,51.32
2022-08-10T11:55:19.690Z,51.72
2022-08-10T11:57:53.999Z,52.13
2022-08-10T12:00:29.615Z,51.61
2022-08-10T12:03:08.546Z,49.65
2022-08-10T12:05:48.339Z,46.72
2022-08-10T12:10:04.327Z,54.54
2022-08-10T12:11:24.747Z,48.12
2022-08-10T12:14:20.804Z,48.54
2022-08-10T12:16:55.483Z,46.51
2022-08-10T12:19:26.352Z,46.36
2022-08-10T12:22:06.028Z,48.02
2022-08-10T12:24:51.638Z,53.24
2022-08-10T12:27:27.688Z,46.37
2022-08-10T12:30:19.479Z,47.47
2022-08-10T12:33:07.820Z,47.13
2022-08-10T12:36:01.795Z,46.86
2022-08-10T12:38:39.298Z,47.87
2022-08-10T12:41:43.720Z,45.93
2022-08-10T12:44:41.690Z,45.23
2022-08-10T12:47:44.495Z,46.17
2022-08-10T12:50:47.533Z,52.02
2022-08-10T12:53:31.488Z,49.78
2022-08-10T12:55:58.257Z,44.62
2022-08-10T12:58:59.659Z,40.27
2022-08-10T13:01:19.099Z,39.90
2022-08-10T13:04:21.111Z,41.70
2022-08-10T13:06:47.431Z,46.28
2022-08-10T13:09:22.494Z,40.03
2022-08-10T13:12:36.741Z,39.20
2022-08-10T13:15:01.676Z,39.86
2022-08-10T13:17:38.859Z,37.91
2022-08-10T13:20:19.522Z,44.63
2022-08-10T13:22:55.505Z,39.01
2022-08-10T13:25:45.567Z,39.98
2022-08-10T13:28:36.510Z,38.73
2022-08-10T13:31:35.698Z,36.44
2022-08-10T13:34:42.707Z,39.28
2022-08-10T13:37:14.319Z,35.38
2022-08-10T13:39:57.690Z,37.66
2022-08-10T13:42:33.092Z,36.82
2022-08-10T13:45:17.546Z,35.86
2022-08-10T13:47:48.548Z,35.18
2022-08-10T13:50:37.571Z,34.60
2022-08-10T13:53:15.879Z,32.66
2022-08-10T13:55:57.527Z,33.48
2022-08-10T13:58:24.503Z,34.17
2022-08-10T14:00:57.694Z,35.26
2022-08-10T14:03:25.973Z,37.46
2022-08-10T14:05:54.177Z,38.72
2022-08-10T14:08:31.810Z,36.21
2022-08-10T14:11:12.373Z,35.84
2022-08-10T14:14:05.511Z,36.68
2022-08-10T14:16:32.942Z,41.41
2022-08-10T14:19:10.722Z,35.52
2022-08-10T14:21:39.057Z,34.73
2022-08-10T14:24:12.486Z,35.46
2022-08-10T14:26:40.659Z,36.47
2022-08-10T14:29:19.712Z,35.90
2022-08-10T14:32:01.530Z,36.28
2022-08-10T14:34:59.303Z,32.37
2022-08-10T14:37:43.266Z,31.90
2022-08-10T14:40:19.484Z,34.19
2022-08-10T14:43:06.384Z,35.83
2022-08-10T14:45:41.508Z,35.10
2022-08-10T14:48:11.423Z,39.28
2022-08-10T14:50:55.326Z,38.29
2022-08-10T14:53:26.938Z,39.61
2022-08-10T14:56:03.518Z,39.47
2022-08-10T14:58:33.044Z,35.09
2022-08-10T15:01:07.553Z,38.96
2022-08-10T15:04:01.890Z,35.53
2022-08-10T15:06:31.369Z,39.97
2022-08-10T15:09:12.587Z,37.02
2022-08-10T15:12:15.111Z,34.94
2022-08-10T15:14:43.234Z,40.21
2022-08-10T15:17:34.864Z,38.88
2022-08-10T15:20:13.726Z,35.45
2022-08-10T15:22:52.879Z,35.97
2022-08-10T15:25:26.638Z,36.29
2022-08-10T15:28:19.493Z,41.17
2022-08-10T15:30:47.997Z,44.38
2022-08-10T15:34:02.556Z,48.33
2022-08-10T15:37:35.910Z,39.88
2022-08-10T15:40:24.242Z,46.01
2022-08-10T15:43:00.490Z,37.70
2022-08-10T15:45:33.639Z,40.23
2022-08-10T15:48:09.597Z,43.96
2022-08-10T15:50:53.485Z,47.73
2022-08-10T15:53:28.342Z,43.04
2022-08-10T15:56:04.684Z,38.43
2022-08-10T15:58:40.184Z,43.77
2022-08-10T16:02:03.859Z,40.25
2022-08-10T16:04:08.379Z,40.24
2022-08-10T16:06:56.475Z,40.92
2022-08-10T16:10:22.148Z,42.56
2022-08-10T16:12:30.010Z,40.45
2022-08-10T16:14:57.356Z,40.95
2022-08-10T16:17:31.520Z,38.80
2022-08-10T16:20:22.990Z,39.00
2022-08-10T16:23:04.668Z,41.16
2022-08-10T16:25:52.078Z,40.72
2022-08-10T16:28:25.483Z,41.01
2022-08-10T16:30:54.552Z,42.39
2022-08-10T16:33:53.851Z,42.96
2022-08-10T16:36:22.062Z,41.61
2022-08-10T16:38:57.462Z,42.47
2022-08-10T16:42:03.276Z,43.01
2022-08-10T16:44:22.490Z,41.19
2022-08-10T16:46:49.457Z,38.74
2022-08-10T16:49:30.490Z,40.58
2022-08-10T16:52:04.580Z,38.42
2022-08-10T16:54:38.485Z,39.27
2022-08-10T16:57:09.457Z,37.38
2022-08-10T16:59:44.515Z,38.48
2022-08-10T17:02:22.478Z,38.03
2022-08-10T17:04:57.482Z,39.16
2022-08-10T17:07:26.964Z,38.08
2022-08-10T17:10:04.466Z,39.83
2022-08-10T17:12:31.689Z,37.29
2022-08-10T17:15:09.506Z,39.33
2022-08-10T17:17:48.875Z,38.59
2022-08-10T17:20:36.504Z,38.83
2022-08-10T17:23:05.072Z,41.03
2022-08-10T17:25:48.989Z,39.18
2022-08-10T17:28:35.047Z,40.99
2022-08-10T17:31:54.094Z,39.54
2022-08-10T17:34:16.467Z,39.76
2022-08-10T17:36:45.448Z,40.31
2022-08-10T17:39:19.528Z,41.16
2022-08-10T17:41:54.547Z,41.28
2022-08-10T17:44:21.970Z,40.54
2022-08-10T17:46:49.944Z,41.08
2022-08-10T17:49:24.484Z,42.38
2022-08-10T17:51:58.081Z,42.82
2022-08-10T17:54:34.483Z,41.57
2022-08-10T17:57:04.019Z,44.12
2022-08-10T17:59:38.641Z,43.36
2022-08-10T18:02:13.512Z,41.84
2022-08-10T18:04:45.820Z,41.85
2022-08-10T18:07:19.471Z,45.09
2022-08-10T18:09:50.748Z,46.54
2022-08-10T18:12:38.087Z,44.91
2022-08-10T18:15:13.299Z,46.13
2022-08-10T18:17:49.494Z,46.50
2022-08-10T18:20:19.963Z,46.67
2022-08-10T18:23:01.464Z,46.18
2022-08-10T18:25:38.501Z,45.16
2022-08-10T18:28:14.565Z,45.87
2022-08-10T18:30:48.116Z,45.71
2022-08-10T18:33:22.504Z,45.66
2022-08-10T18:35:51.253Z,47.57
2022-08-10T18:38:25.553Z,47.40
2022-08-10T18:41:08.480Z,48.38
2022-08-10T18:44:05.018Z,47.93
2022-08-10T18:46:37.492Z,48.81
2022-08-10T18:49:13.211Z,50.74
2022-08-10T18:51:55.486Z,51.25
2022-08-10T18:54:38.992Z,52.73
2022-08-10T18:57:27.559Z,56.25
2022-08-10T19:00:08.642Z,58.20
2022-08-10T19:02:54.479Z,58.26
2022-08-10T19:05:39.778Z,57.51
2022-08-10T19:08:30.922Z,54.93
2022-08-10T19:11:04.300Z,56.00
2022-08-10T19:13:49.098Z,57.54
2022-08-10T19:16:40.681Z,55.41
2022-08-10T19:19:33.484Z,54.17
2022-08-10T19:22:21.494Z,53.29
2022-08-10T19:24:48.801Z,53.46
2022-08-10T19:27:36.596Z,52.97
2022-08-10T19:30:13.903Z,52.48
2022-08-10T19:32:59.287Z,53.45
2022-08-10T19:36:03.200Z,53.41
2022-08-10T19:38:54.705Z,53.46
2022-08-10T19:41:41.990Z,53.61
2022-08-10T19:44:24.583Z,54.79
2022-08-10T19:47:02.622Z,56.64
2022-08-10T19:49:39.695Z,57.21
2022-08-10T19:52:19.665Z,56.66
2022-08-10T19:55:31.521Z,60.29
2022-08-10T19:58:06.892Z,63.14
2022-08-10T20:00:58.515Z,63.01
2022-08-10T20:03:37.556Z,62.30
2022-08-10T20:06:19.069Z,62.66
2022-08-10T20:09:06.831Z,60.98
2022-08-10T20:11:45.917Z,61.83
2022-08-10T20:14:35.637Z,63.36
2022-08-10T20:17:17.567Z,62.02
2022-08-10T20:20:03.662Z,60.51
2022-08-10T20:22:40.461Z,61.36
2022-08-10T20:25:20.734Z,64.49
2022-08-10T20:28:00.989Z,68.46
2022-08-10T20:30:37.493Z,69.41
2022-08-10T20:33:07.121Z,71.61
2022-08-10T20:35:55.627Z,69.10
2022-08-10T20:38:27.561Z,66.90
2022-08-10T20:41:20.453Z,69.08
2022-08-10T20:44:05.868Z,71.47
2022-08-10T20:46:42.448Z,67.43
2022-08-10T20:49:32.518Z,65.79
2022-08-10T20:52:13.456Z,67.67
2022-08-10T20:54:48.869Z,69.26
2022-08-10T20:57:55.354Z,66.18
2022-08-10T21:00:18.486Z,66.83
2022-08-10T21:02:56.482Z,68.22
2022-08-10T21:05:29.758Z,67.84
2022-08-10T21:08:08.928Z,67.48
2022-08-10T21:10:58.434Z,67.29
2022-08-10T21:13:25.027Z,67.49
2022-08-10T21:16:01.465Z,66.96
2022-08-10T21:18:47.484Z,67.50
2022-08-10T21:21:41.298Z,67.54
2022-08-10T21:24:19.985Z,66.75
2022-08-10T21:27:08.505Z,67.21
2022-08-10T21:30:00.426Z,66.91
2022-08-10T21:32:33.472Z,68.33
2022-08-10T21:35:09.168Z,67.52
2022-08-10T21:41:17.790Z,67.42
2022-08-10T21:44:02.498Z,69.63
2022-08-10T21:47:01.744Z,67.99
2022-08-10T21:50:10.471Z,66.72
2022-08-10T21:53:04.401Z,67.91
2022-08-10T21:56:02.469Z,67.78
2022-08-10T21:58:56.676Z,68.15
2022-08-10T22:01:53.408Z,67.41
2022-08-10T22:04:45.840Z,68.22
2022-08-10T22:07:33.434Z,66.54
2022-08-10T22:10:28.445Z,65.78
2022-08-10T22:13:24.450Z,65.81
2022-08-10T22:16:13.241Z,66.01
2022-08-10T22:19:13.471Z,66.89
2022-08-10T22:22:04.438Z,67.15
2022-08-10T22:25:25.476Z,68.42
2022-08-10T22:28:22.489Z,69.03
2022-08-10T22:31:28.295Z,67.07
2022-08-10T22:31:31.762Z,73.40
2022-08-10T22:34:42.447Z,75.84
2022-08-10T22:37:55.069Z,76.70
2022-08-10T22:40:48.553Z,76.65
2022-08-10T22:43:38.680Z,78.78
2022-08-10T22:46:42.468Z,76.81
2022-08-10T22:49:09.368Z,78.67
2022-08-10T22:52:09.436Z,79.81
2022-08-10T22:55:08.680Z,81.23
2022-08-10T22:58:00.461Z,83.05
2022-08-10T23:00:31.344Z,80.88
2022-08-10T23:03:16.506Z,81.05
2022-08-10T23:06:06.279Z,81.07
2022-08-10T23:08:49.414Z,81.00
2022-08-10T23:11:24.976Z,81.42
2022-08-10T23:14:02.417Z,79.74
2022-08-10T23:16:49.060Z,79.34
2022-08-10T23:19:33.429Z,79.28
2022-08-10T23:22:14.417Z,77.46
2022-08-10T23:24:44.038Z,77.40
2022-08-10T23:27:37.508Z,77.61
2022-08-10T23:30:10.335Z,77.44
2022-08-10T23:32:49.458Z,77.87
2022-08-10T23:36:30.311Z,78.49
2022-08-10T23:38:18.416Z,81.58
2022-08-10T23:40:53.416Z,80.87
2022-08-10T23:43:53.470Z,80.39
2022-08-10T23:46:22.784Z,80.31
2022-08-10T23:48:59.405Z,79.45
2022-08-10T23:51:38.897Z,79.53
2022-08-10T23:54:29.433Z,79.65
2022-08-10T23:57:01.017Z,80.77
2022-08-10T23:59:38.416Z,83.03
